createdAt,value
2019-03-17T17:07:18.478Z,6.53
2019-03-17T17:14:56.082Z,4.75
2019-03-17T17:20:39.473Z,4.95
2019-03-17T17:27:36.329Z,17.75
2019-03-17T17:30:12.500Z,18.70
2019-03-17T17:32:42.815Z,20.17
2019-03-17T17:35:13.545Z,21.02
2019-03-17T17:37:43.770Z,23.83
2019-03-17T17:40:19.583Z,22.58
2019-03-17T17:42:49.572Z,22.07
2019-03-17T17:45:40.705Z,22.45
2019-03-17T17:48:10.974Z,24.10
2019-03-17T17:50:44.137Z,24.45
2019-03-17T17:53:14.237Z,22.48
2019-03-17T17:55:44.799Z,23.65
2019-03-17T17:58:14.866Z,23.50
2019-03-17T18:00:46.940Z,23.50
2019-03-17T18:03:17.495Z,24.27
2019-03-17T18:05:47.991Z,27.35
2019-03-17T18:08:18.054Z,22.85
2019-03-17T18:10:48.232Z,28.60
2019-03-17T18:13:18.243Z,35.03
2019-03-17T18:15:48.533Z,39.50
2019-03-17T18:18:18.755Z,24.75
2019-03-17T18:20:49.183Z,26.20
2019-03-17T18:23:19.512Z,26.05
2019-03-17T18:25:49.729Z,25.05
2019-03-17T18:28:19.950Z,24.27
2019-03-17T18:30:50.171Z,25.15
2019-03-17T18:33:20.293Z,23.55
2019-03-17T18:35:52.151Z,24.10
2019-03-17T18:41:11.645Z,26.02
2019-03-17T18:43:41.862Z,28.23
2019-03-17T18:46:12.291Z,25.27
2019-03-17T18:48:42.306Z,29.60
2019-03-17T18:51:12.596Z,28.32
2019-03-17T18:53:42.954Z,28.17
2019-03-17T18:56:13.176Z,26.97
2019-03-17T18:58:43.500Z,25.97
2019-03-17T19:01:13.827Z,26.35
2019-03-17T19:03:44.045Z,27.20
2019-03-17T19:06:14.165Z,26.25
2019-03-17T19:08:44.489Z,26.95
2019-03-17T19:11:15.122Z,26.77
2019-03-17T19:13:45.445Z,28.20
2019-03-17T19:16:15.462Z,29.45
2019-03-17T19:18:45.583Z,30.30
2019-03-17T19:21:17.543Z,27.90
2019-03-17T19:23:47.773Z,30.17
2019-03-17T19:26:17.889Z,27.80
2019-03-17T19:28:48.006Z,26.97
2019-03-17T19:31:18.230Z,28.38
2019-03-17T19:33:48.448Z,27.60
2019-03-17T19:36:18.688Z,27.35
2019-03-17T19:38:48.793Z,23.32
2019-03-17T19:41:22.086Z,23.07
2019-03-17T19:43:52.210Z,21.52
2019-03-17T19:46:22.835Z,20.92
2019-03-17T19:48:53.059Z,19.85
2019-03-17T19:51:23.591Z,20.15
2019-03-17T19:53:53.919Z,22.45
2019-03-17T19:56:24.035Z,18.65
2019-03-17T19:58:54.357Z,19.80
2019-03-17T20:01:24.681Z,20.90
2019-03-17T20:03:55.129Z,33.60
2019-03-17T20:06:25.429Z,24.43
2019-03-17T20:08:56.636Z,20.55
2019-03-17T20:11:28.330Z,20.05
2019-03-17T20:14:00.803Z,19.12
2019-03-17T20:16:32.356Z,18.60
2019-03-17T20:19:02.480Z,19.30
2019-03-17T20:21:33.106Z,17.77
2019-03-17T20:24:23.531Z,18.75
2019-03-17T20:26:53.831Z,18.12
2019-03-17T20:29:29.011Z,16.23
2019-03-17T20:32:00.514Z,17.23
2019-03-17T20:34:30.840Z,16.95
2019-03-17T20:37:01.566Z,15.93
2019-03-17T20:39:32.204Z,15.30
2019-03-17T20:42:04.474Z,17.12
2019-03-17T20:44:34.905Z,14.25
2019-03-17T20:47:06.145Z,14.63
2019-03-17T20:49:39.324Z,14.78
2019-03-17T20:52:09.257Z,15.68
2019-03-17T20:54:40.908Z,13.32
2019-03-17T20:57:11.231Z,14.73
2019-03-17T20:59:41.351Z,14.70
2019-03-17T21:02:13.211Z,14.85
2019-03-17T21:04:43.439Z,13.38
2019-03-17T21:07:15.191Z,12.80
2019-03-17T21:09:45.514Z,12.18
2019-03-17T21:12:15.634Z,11.40
2019-03-17T21:14:45.753Z,12.90
2019-03-17T21:17:15.975Z,12.75
2019-03-17T21:19:47.323Z,11.18
2019-03-17T21:22:17.752Z,10.93
2019-03-17T21:24:47.975Z,10.95
2019-03-17T21:27:18.193Z,11.12
2019-03-17T21:29:49.965Z,11.50
2019-03-17T21:32:19.971Z,10.13
2019-03-17T21:34:50.292Z,10.78
2019-03-17T21:37:20.310Z,11.28
2019-03-17T21:39:50.646Z,10.25
2019-03-17T21:42:24.337Z,10.63
2019-03-17T21:44:54.564Z,10.13
2019-03-17T21:47:24.885Z,9.78
2019-03-17T21:49:57.769Z,10.08
2019-03-17T21:52:32.292Z,9.68
2019-03-17T21:55:02.515Z,10.15
2019-03-17T21:57:33.514Z,11.08
2019-03-17T22:00:04.385Z,9.65
2019-03-17T22:02:34.519Z,8.68
2019-03-17T22:05:04.628Z,9.98
2019-03-17T22:07:34.850Z,9.38
2019-03-17T22:10:07.899Z,8.45
2019-03-17T22:12:38.569Z,9.40
2019-03-17T22:15:11.862Z,9.00
2019-03-17T22:17:42.234Z,8.60
2019-03-17T22:20:13.421Z,9.55
2019-03-17T22:22:46.096Z,8.80
2019-03-17T22:25:16.962Z,8.98
2019-03-17T22:28:08.621Z,8.90
2019-03-17T22:30:36.029Z,8.88
2019-03-17T22:33:06.150Z,9.00
2019-03-17T22:35:36.370Z,8.25
2019-03-17T22:38:06.694Z,8.98
2019-03-17T22:40:38.554Z,8.18
2019-03-17T22:43:08.572Z,8.60
2019-03-17T22:45:38.590Z,8.43
2019-03-17T22:48:13.008Z,8.25
2019-03-17T22:50:43.332Z,8.23
2019-03-17T22:53:13.554Z,8.33
2019-03-17T22:55:49.101Z,8.33
2019-03-17T22:58:21.750Z,7.85
2019-03-17T23:00:52.003Z,7.70
2019-03-17T23:03:25.212Z,8.50
2019-03-17T23:05:55.521Z,7.90
2019-03-17T23:08:25.641Z,7.60
2019-03-17T23:10:56.152Z,7.55
2019-03-17T23:13:26.285Z,6.95
2019-03-17T23:15:56.507Z,7.03
2019-03-17T23:18:26.626Z,6.80
2019-03-17T23:20:56.848Z,6.20
2019-03-17T23:23:26.968Z,6.67
2019-03-17T23:26:16.447Z,6.97
2019-03-17T23:28:47.174Z,7.60
2019-03-17T23:31:17.398Z,6.50
2019-03-17T23:33:47.825Z,7.05
2019-03-17T23:36:18.146Z,6.40
2019-03-17T23:38:48.266Z,6.30
2019-03-17T23:41:18.901Z,6.22
2019-03-17T23:43:51.781Z,6.75
2019-03-17T23:46:21.902Z,6.55
2019-03-17T23:48:53.762Z,6.53
2019-03-17T23:51:24.086Z,6.53
2019-03-17T23:53:54.308Z,6.58
2019-03-17T23:56:24.631Z,6.35
2019-03-17T23:58:55.162Z,5.85
